createdAt,value
2017-07-11T00:00:49.786Z,89.70
2017-07-11T00:03:17.347Z,90.00
2017-07-11T00:05:44.913Z,90.10
2017-07-11T00:08:12.483Z,90.10
2017-07-11T00:10:40.159Z,90.30
2017-07-11T00:13:08.503Z,91.20
2017-07-11T00:15:36.067Z,91.00
2017-07-11T00:18:03.633Z,91.30
2017-07-11T00:20:31.203Z,91.50
2017-07-11T00:22:58.772Z,91.10
2017-07-11T00:25:26.337Z,91.60
2017-07-11T00:27:53.932Z,91.80
2017-07-11T00:30:21.503Z,91.30
2017-07-11T00:32:49.927Z,91.20
2017-07-11T00:35:17.496Z,90.80
2017-07-11T00:37:45.187Z,90.90
2017-07-11T00:40:13.531Z,91.30
2017-07-11T00:42:41.122Z,91.30
2017-07-11T00:45:08.674Z,91.00
2017-07-11T00:47:36.231Z,91.30
2017-07-11T00:50:03.806Z,91.50
2017-07-11T00:52:32.136Z,91.60
2017-07-11T00:54:59.707Z,91.30
2017-07-11T00:57:27.254Z,91.30
2017-07-11T00:59:54.819Z,91.80
2017-07-11T01:02:22.435Z,91.50
2017-07-11T01:04:50.787Z,91.80
2017-07-11T01:07:18.371Z,91.70
2017-07-11T01:09:45.920Z,91.70
2017-07-11T01:12:13.634Z,92.20
2017-07-11T01:14:41.199Z,92.70
2017-07-11T01:17:08.762Z,92.80
2017-07-11T01:19:36.318Z,92.00
2017-07-11T01:22:03.882Z,91.40
2017-07-11T01:24:31.439Z,91.00
2017-07-11T01:26:59.306Z,90.40
2017-07-11T01:29:26.866Z,90.20
2017-07-11T01:31:54.442Z,89.20
2017-07-11T01:34:22.018Z,88.90
2017-07-11T01:36:49.604Z,90.00
2017-07-11T01:39:17.175Z,87.40
2017-07-11T01:41:44.720Z,87.10
2017-07-11T01:44:12.291Z,87.60
2017-07-11T01:46:39.966Z,88.20
2017-07-11T01:49:07.552Z,88.60
2017-07-11T01:51:36.528Z,87.10
2017-07-11T01:54:04.082Z,87.30
2017-07-11T01:56:32.181Z,87.10
2017-07-11T01:59:00.502Z,86.60
2017-07-11T02:01:28.065Z,86.60
2017-07-11T02:03:55.635Z,88.60
2017-07-11T02:06:23.211Z,87.40
2017-07-11T02:08:50.950Z,86.70
2017-07-11T02:11:18.534Z,88.20
2017-07-11T02:13:46.115Z,89.60
2017-07-11T02:16:13.687Z,88.40
2017-07-11T02:18:41.250Z,87.90
2017-07-11T02:21:09.594Z,89.70
2017-07-11T02:23:37.310Z,89.50
2017-07-11T02:26:05.672Z,88.30
2017-07-11T02:28:33.262Z,88.30
2017-07-11T02:31:00.943Z,89.50
2017-07-11T02:33:28.518Z,89.80
2017-07-11T02:35:56.112Z,90.10
2017-07-11T02:38:23.687Z,90.00
2017-07-11T02:40:51.238Z,91.40
2017-07-11T02:43:18.810Z,90.70
2017-07-11T02:45:46.376Z,91.10
2017-07-11T02:48:13.917Z,91.40
2017-07-11T02:50:41.495Z,92.10
2017-07-11T02:53:09.041Z,92.00
2017-07-11T02:55:36.622Z,91.50
2017-07-11T02:58:04.952Z,91.90
2017-07-11T03:00:32.510Z,91.90
2017-07-11T03:03:00.101Z,91.20
2017-07-11T03:05:27.660Z,91.80
2017-07-11T03:07:55.241Z,91.30
2017-07-11T03:10:22.796Z,92.10
2017-07-11T03:12:50.384Z,92.00
2017-07-11T03:15:18.708Z,92.00
2017-07-11T03:17:46.286Z,92.00
2017-07-11T03:20:13.842Z,91.90
2017-07-11T03:22:41.412Z,91.90
2017-07-11T03:25:08.990Z,91.40
2017-07-11T03:27:36.559Z,91.40
2017-07-11T03:30:04.136Z,91.90
2017-07-11T03:32:32.478Z,91.30
2017-07-11T03:35:00.035Z,91.30
2017-07-11T03:37:27.599Z,91.50
2017-07-11T03:39:55.193Z,92.00
2017-07-11T03:42:23.753Z,91.60
2017-07-11T03:44:51.319Z,91.60
2017-07-11T03:47:18.882Z,92.20
2017-07-11T03:49:46.466Z,91.70
2017-07-11T03:52:14.812Z,91.40
2017-07-11T03:54:42.532Z,91.40
2017-07-11T03:57:10.213Z,91.90
2017-07-11T03:59:37.779Z,91.70
2017-07-11T04:02:05.502Z,92.00
2017-07-11T04:04:33.066Z,91.90
2017-07-11T04:07:00.812Z,92.00
2017-07-11T04:09:28.422Z,92.00
2017-07-11T04:11:55.975Z,91.20
2017-07-11T04:14:23.525Z,91.00
2017-07-11T04:16:51.343Z,90.60
2017-07-11T04:19:18.912Z,90.50
2017-07-11T04:21:46.457Z,90.20
2017-07-11T04:24:14.032Z,90.00
2017-07-11T04:26:41.579Z,90.00
2017-07-11T04:29:09.154Z,89.10
2017-07-11T04:31:36.719Z,90.10
2017-07-11T04:34:04.270Z,89.40
2017-07-11T04:36:31.847Z,89.10
2017-07-11T04:39:00.179Z,88.00
2017-07-11T04:41:27.769Z,88.00
2017-07-11T04:43:55.456Z,87.50
2017-07-11T04:46:23.926Z,86.20
2017-07-11T04:48:51.516Z,86.60
2017-07-11T04:51:19.867Z,83.40
2017-07-11T04:53:47.410Z,83.30
2017-07-11T04:56:14.971Z,81.90
2017-07-11T04:58:42.540Z,81.10
2017-07-11T05:01:10.090Z,80.90
2017-07-11T05:03:37.666Z,79.60
2017-07-11T05:06:05.228Z,79.40
2017-07-11T05:08:32.789Z,79.90
2017-07-11T05:11:00.348Z,79.40
2017-07-11T05:13:27.936Z,78.80
2017-07-11T05:15:56.280Z,79.40
2017-07-11T05:18:23.844Z,79.30
2017-07-11T05:20:51.414Z,79.20
2017-07-11T05:23:18.977Z,79.30
2017-07-11T05:25:46.523Z,79.30
2017-07-11T05:28:14.099Z,78.70
2017-07-11T05:30:41.642Z,78.50
2017-07-11T05:33:09.195Z,79.00
2017-07-11T05:35:36.782Z,78.30
2017-07-11T05:38:04.338Z,79.50
2017-07-11T05:40:31.902Z,79.60
2017-07-11T05:42:59.448Z,80.30
2017-07-11T05:45:27.008Z,78.80
2017-07-11T05:47:54.596Z,78.90
2017-07-11T05:50:22.154Z,77.70
2017-07-11T05:52:49.752Z,78.30
2017-07-11T05:55:18.068Z,78.00
2017-07-11T05:57:45.817Z,77.90
2017-07-11T06:00:13.367Z,78.50
2017-07-11T06:02:40.953Z,78.30
2017-07-11T06:05:08.510Z,78.10
2017-07-11T06:07:36.079Z,76.50
2017-07-11T06:10:03.661Z,76.00
2017-07-11T06:12:31.309Z,70.90
2017-07-11T06:14:58.819Z,67.30
2017-07-11T06:17:27.166Z,65.30
2017-07-11T06:19:54.831Z,64.90
2017-07-11T06:22:22.482Z,66.80
2017-07-11T06:24:50.075Z,67.70
2017-07-11T06:27:17.640Z,70.80
2017-07-11T06:29:45.220Z,71.10
2017-07-11T06:32:13.568Z,73.20
2017-07-11T06:34:41.123Z,73.20
2017-07-11T06:37:08.703Z,74.70
2017-07-11T06:39:36.275Z,71.80
2017-07-11T06:42:03.827Z,69.30
2017-07-11T06:44:31.393Z,67.40
2017-07-11T06:46:58.948Z,69.70
2017-07-11T06:49:27.428Z,67.90
2017-07-11T06:51:54.974Z,67.80
2017-07-11T06:54:22.542Z,64.90
2017-07-11T06:56:50.115Z,61.10
2017-07-11T06:59:17.673Z,62.50
2017-07-11T07:01:45.305Z,64.10
2017-07-11T07:04:12.871Z,64.90
2017-07-11T07:06:40.444Z,65.90
2017-07-11T07:09:08.019Z,64.10
2017-07-11T07:11:35.581Z,61.50
2017-07-11T07:14:03.154Z,63.00
2017-07-11T07:16:30.724Z,64.70
2017-07-11T07:18:58.310Z,64.80
2017-07-11T07:21:25.863Z,66.70
2017-07-11T07:23:53.583Z,68.20
2017-07-11T07:26:21.126Z,67.80
2017-07-11T07:28:48.690Z,68.60
2017-07-11T07:31:16.270Z,69.30
2017-07-11T07:33:43.839Z,69.40
2017-07-11T07:36:12.166Z,67.00
2017-07-11T07:38:39.842Z,67.00
2017-07-11T07:41:07.391Z,66.30
2017-07-11T07:43:34.966Z,65.00
2017-07-11T07:46:02.523Z,65.90
2017-07-11T07:48:30.101Z,62.70
2017-07-11T07:50:57.697Z,63.90
2017-07-11T07:53:26.049Z,61.80
2017-07-11T07:55:53.623Z,61.80
2017-07-11T07:58:21.196Z,61.90
2017-07-11T08:00:49.555Z,59.90
2017-07-11T08:03:17.111Z,59.90
2017-07-11T08:05:44.676Z,60.90
2017-07-11T08:08:12.251Z,62.70
2017-07-11T08:10:39.971Z,63.50
2017-07-11T08:13:07.539Z,64.80
2017-07-11T08:15:35.162Z,65.20
2017-07-11T08:18:03.522Z,66.90
2017-07-11T08:20:31.137Z,66.90
2017-07-11T08:22:58.697Z,66.40
2017-07-11T08:25:26.323Z,66.80
2017-07-11T08:27:54.659Z,61.90
2017-07-11T08:30:22.270Z,61.90
2017-07-11T08:32:50.666Z,56.80
2017-07-11T08:35:18.250Z,56.70
2017-07-11T08:37:45.814Z,57.10
2017-07-11T08:40:13.386Z,53.80
2017-07-11T08:42:40.942Z,54.40
2017-07-11T08:45:08.528Z,51.70
2017-07-11T08:47:36.095Z,48.40
2017-07-11T08:50:03.686Z,49.40
2017-07-11T08:52:32.177Z,48.40
2017-07-11T08:55:00.589Z,46.30
2017-07-11T08:57:28.179Z,46.20
2017-07-11T08:59:55.933Z,46.50
2017-07-11T09:02:23.495Z,45.60
2017-07-11T09:04:51.081Z,45.20
2017-07-11T09:07:18.639Z,46.10
2017-07-11T09:09:46.221Z,46.70
2017-07-11T09:12:13.769Z,48.00
2017-07-11T09:14:41.366Z,45.70
2017-07-11T09:17:09.725Z,45.50
2017-07-11T09:19:37.281Z,45.50
2017-07-11T09:22:04.868Z,44.80
2017-07-11T09:24:33.196Z,45.30
2017-07-11T09:27:00.814Z,45.30
2017-07-11T09:29:29.176Z,42.60
2017-07-11T09:31:56.754Z,42.40
2017-07-11T09:34:25.096Z,41.70
2017-07-11T09:36:52.658Z,41.70
2017-07-11T09:39:20.212Z,41.50
2017-07-11T09:41:47.789Z,40.90
2017-07-11T09:44:15.352Z,40.90
2017-07-11T09:46:42.935Z,41.90
2017-07-11T09:49:10.501Z,41.50
2017-07-11T09:51:38.831Z,44.10
2017-07-11T09:54:06.407Z,44.70
2017-07-11T09:56:33.964Z,43.50
2017-07-11T09:59:01.524Z,44.60
2017-07-11T10:01:29.099Z,43.60
2017-07-11T10:03:56.807Z,44.40
2017-07-11T10:06:25.179Z,43.60
2017-07-11T10:08:53.527Z,46.20
2017-07-11T10:11:21.074Z,46.50
2017-07-11T10:13:48.648Z,45.90
2017-07-11T10:16:16.223Z,46.50
2017-07-11T10:18:43.814Z,44.80
2017-07-11T10:21:12.148Z,42.10
2017-07-11T10:23:39.711Z,42.60
2017-07-11T10:26:07.287Z,42.40
2017-07-11T10:28:34.875Z,41.50
2017-07-11T10:31:03.210Z,39.50
2017-07-11T10:33:30.912Z,38.80
2017-07-11T10:35:58.491Z,37.30
2017-07-11T10:38:26.266Z,38.10
2017-07-11T10:40:53.882Z,38.90
2017-07-11T10:43:22.211Z,37.40
2017-07-11T10:45:50.057Z,37.30
2017-07-11T10:48:17.635Z,37.80
2017-07-11T10:50:45.203Z,37.80
2017-07-11T10:53:12.769Z,36.00
2017-07-11T10:55:40.415Z,37.30
2017-07-11T10:58:07.981Z,38.70
2017-07-11T11:00:35.781Z,40.00
2017-07-11T11:03:03.335Z,39.10
2017-07-11T11:05:30.907Z,40.40
2017-07-11T11:07:58.488Z,38.40
2017-07-11T11:10:26.054Z,40.40
2017-07-11T11:12:53.667Z,38.20
2017-07-11T11:15:21.258Z,37.00
2017-07-11T11:17:48.837Z,37.30
2017-07-11T11:20:16.406Z,38.20
2017-07-11T11:22:43.984Z,38.20
2017-07-11T11:25:12.341Z,37.10
2017-07-11T11:27:39.907Z,37.10
2017-07-11T11:30:07.493Z,36.90
2017-07-11T11:32:35.847Z,40.00
2017-07-11T11:35:03.422Z,39.90
2017-07-11T11:37:31.019Z,37.60
2017-07-11T11:39:58.595Z,38.20
2017-07-11T11:42:26.250Z,37.00
2017-07-11T11:44:53.823Z,37.50
2017-07-11T11:47:21.423Z,37.60
2017-07-11T11:49:48.988Z,38.40
2017-07-11T11:52:16.552Z,37.50
2017-07-11T11:54:44.112Z,37.80
2017-07-11T11:57:11.703Z,40.50
2017-07-11T11:59:39.254Z,42.80
2017-07-11T12:02:06.803Z,43.20
2017-07-11T12:04:34.400Z,42.60
2017-07-11T12:07:01.982Z,40.50
2017-07-11T12:09:30.337Z,42.80
2017-07-11T12:11:57.912Z,42.70
2017-07-11T12:14:26.307Z,41.50
2017-07-11T12:16:54.686Z,41.50
2017-07-11T12:19:23.060Z,41.00
2017-07-11T12:21:51.406Z,41.40
2017-07-11T12:24:18.980Z,41.30
2017-07-11T12:26:46.571Z,41.30
2017-07-11T12:29:14.897Z,41.30
2017-07-11T12:31:42.486Z,41.30
2017-07-11T12:34:10.076Z,42.60
2017-07-11T12:36:38.137Z,44.80
2017-07-11T12:39:05.720Z,43.10
2017-07-11T12:41:34.086Z,43.70
2017-07-11T12:44:01.648Z,43.60
2017-07-11T12:46:29.991Z,44.00
2017-07-11T12:48:57.570Z,43.90
2017-07-11T12:51:25.158Z,43.70
2017-07-11T12:53:53.490Z,45.70
2017-07-11T12:56:21.071Z,45.70
2017-07-11T12:58:48.825Z,45.60
2017-07-11T13:01:16.388Z,45.50
2017-07-11T13:03:43.955Z,44.70
2017-07-11T13:06:11.524Z,44.00
2017-07-11T13:08:39.212Z,43.70
2017-07-11T13:11:06.797Z,44.00
2017-07-11T13:13:35.142Z,45.70
2017-07-11T13:16:02.733Z,45.70
2017-07-11T13:18:31.123Z,45.60
2017-07-11T13:20:59.526Z,47.60
2017-07-11T13:23:27.131Z,47.40
2017-07-11T13:25:54.710Z,46.50
2017-07-11T13:28:22.277Z,45.30
2017-07-11T13:30:49.926Z,45.60
2017-07-11T13:33:17.492Z,47.20
2017-07-11T13:35:45.064Z,46.60
2017-07-11T13:38:12.609Z,45.50
2017-07-11T13:40:40.395Z,46.10
2017-07-11T13:43:07.945Z,46.60
2017-07-11T13:45:35.515Z,46.90
2017-07-11T13:48:03.130Z,48.20
2017-07-11T13:50:31.523Z,48.10
2017-07-11T13:52:59.103Z,48.00
2017-07-11T13:55:26.732Z,48.60
2017-07-11T13:57:54.313Z,50.40
2017-07-11T14:00:21.915Z,48.40
2017-07-11T14:02:49.482Z,48.20
2017-07-11T14:05:17.993Z,48.10
2017-07-11T14:07:45.608Z,47.40
2017-07-11T14:10:13.191Z,47.80
2017-07-11T14:12:41.707Z,47.60
2017-07-11T14:15:09.375Z,47.60
2017-07-11T14:17:36.943Z,44.70
2017-07-11T14:20:04.505Z,44.90
2017-07-11T14:22:32.115Z,45.40
2017-07-11T14:24:59.706Z,46.20
2017-07-11T14:27:28.078Z,47.40
2017-07-11T14:29:56.438Z,46.80
2017-07-11T14:32:23.995Z,46.70
2017-07-11T14:34:51.598Z,46.30
2017-07-11T14:37:19.191Z,46.70
2017-07-11T14:39:46.778Z,46.70
2017-07-11T14:42:14.343Z,46.60
2017-07-11T14:44:41.979Z,47.20
2017-07-11T14:47:09.577Z,47.20
2017-07-11T14:49:37.164Z,47.40
2017-07-11T14:52:05.495Z,47.60
2017-07-11T14:54:35.264Z,47.50
2017-07-11T14:57:02.980Z,47.50
2017-07-11T14:59:30.579Z,49.80
2017-07-11T15:01:58.138Z,52.40
2017-07-11T15:04:25.740Z,53.90
2017-07-11T15:06:53.337Z,55.60
2017-07-11T15:09:20.918Z,57.30
2017-07-11T15:11:49.253Z,57.50
2017-07-11T15:14:16.869Z,57.40
2017-07-11T15:16:45.205Z,57.60
2017-07-11T15:19:12.788Z,57.70
2017-07-11T15:21:40.349Z,56.90
2017-07-11T15:24:07.929Z,57.50
2017-07-11T15:26:36.274Z,56.50
2017-07-11T15:29:03.819Z,56.50
2017-07-11T15:31:31.391Z,56.80
2017-07-11T15:33:58.973Z,56.60
2017-07-11T15:36:26.552Z,57.60
2017-07-11T15:38:54.886Z,57.00
2017-07-11T15:41:22.442Z,57.00
2017-07-11T15:43:50.026Z,56.90
2017-07-11T15:46:17.605Z,57.60
2017-07-11T15:48:45.205Z,58.50
2017-07-11T15:51:12.763Z,57.10
2017-07-11T15:53:40.324Z,57.10
2017-07-11T15:56:07.937Z,58.60
2017-07-11T15:58:35.486Z,57.30
2017-07-11T16:01:03.042Z,57.00
2017-07-11T16:03:30.658Z,55.60
2017-07-11T16:05:59.019Z,54.70
2017-07-11T16:08:26.599Z,55.30
2017-07-11T16:10:54.155Z,54.20
2017-07-11T16:13:21.754Z,50.90
2017-07-11T16:15:49.311Z,50.30
2017-07-11T16:18:16.848Z,50.00
2017-07-11T16:20:44.431Z,50.60
2017-07-11T16:23:11.994Z,50.10
2017-07-11T16:25:40.329Z,50.10
2017-07-11T16:28:08.088Z,50.00
2017-07-11T16:30:35.694Z,51.10
2017-07-11T16:33:04.057Z,50.90
2017-07-11T16:35:42.136Z,50.80
2017-07-11T16:38:09.736Z,50.80
2017-07-11T16:40:38.122Z,50.70
2017-07-11T16:43:06.508Z,52.10
2017-07-11T16:45:34.870Z,51.90
2017-07-11T16:48:02.446Z,51.80
2017-07-11T16:50:30.822Z,53.30
2017-07-11T16:52:58.454Z,53.20
2017-07-11T16:55:26.031Z,53.80
2017-07-11T16:57:53.675Z,52.00
2017-07-11T17:00:21.274Z,53.20
2017-07-11T17:02:48.860Z,54.30
2017-07-11T17:05:16.446Z,53.10
2017-07-11T17:07:44.083Z,51.60
2017-07-11T17:10:11.661Z,52.50
2017-07-11T17:12:39.259Z,52.30
2017-07-11T17:15:06.825Z,52.80
2017-07-11T17:17:34.563Z,51.50
2017-07-11T17:20:02.330Z,52.80
2017-07-11T17:22:29.914Z,51.80
2017-07-11T17:24:57.507Z,52.40
2017-07-11T17:27:25.100Z,54.30
2017-07-11T17:29:52.666Z,52.50
2017-07-11T17:32:20.282Z,53.80
2017-07-11T17:34:47.877Z,52.70
2017-07-11T17:37:16.196Z,53.50
2017-07-11T17:39:43.781Z,53.50
2017-07-11T17:42:11.415Z,54.40
2017-07-11T17:44:38.987Z,55.30
2017-07-11T17:47:06.547Z,54.80
2017-07-11T17:49:34.161Z,54.90
2017-07-11T17:52:01.743Z,66.00
2017-07-11T17:54:29.326Z,76.90
2017-07-11T17:56:57.141Z,83.20
2017-07-11T17:59:24.712Z,88.90
2017-07-11T18:01:52.307Z,91.50
2017-07-11T18:04:19.964Z,92.50
2017-07-11T18:06:47.711Z,93.90
2017-07-11T18:09:15.556Z,95.10
2017-07-11T18:11:43.132Z,94.90
2017-07-11T18:14:10.769Z,95.50
2017-07-11T18:16:38.364Z,95.40
2017-07-11T18:19:05.916Z,96.30
2017-07-11T18:21:33.505Z,97.40
2017-07-11T18:24:01.085Z,98.30
2017-07-11T18:26:29.727Z,99.90
2017-07-11T18:28:57.341Z,99.10
2017-07-11T18:31:24.904Z,99.90
2017-07-11T18:33:52.533Z,99.10
2017-07-11T18:36:20.858Z,99.40
2017-07-11T18:38:48.433Z,99.30
2017-07-11T18:41:16.220Z,99.90
2017-07-11T18:43:44.665Z,99.90
2017-07-11T18:46:12.296Z,99.90
2017-07-11T18:48:39.945Z,99.90
2017-07-11T18:51:07.557Z,99.90
2017-07-11T18:53:35.195Z,99.90
2017-07-11T18:56:02.815Z,99.90
2017-07-11T18:58:31.162Z,99.90
2017-07-11T19:00:58.733Z,99.90
2017-07-11T19:03:26.297Z,99.90
2017-07-11T19:05:53.950Z,99.90
2017-07-11T19:08:21.644Z,99.90
2017-07-11T19:10:49.999Z,99.90
2017-07-11T19:13:17.730Z,99.90
2017-07-11T19:15:45.360Z,99.90
2017-07-11T19:18:13.723Z,99.90
2017-07-11T19:20:41.304Z,99.90
2017-07-11T19:23:09.741Z,99.90
2017-07-11T19:25:37.510Z,99.90
2017-07-11T19:28:05.176Z,99.90
2017-07-11T19:30:32.889Z,99.90
2017-07-11T19:33:00.566Z,99.90
2017-07-11T19:35:28.520Z,99.90
2017-07-11T19:37:56.928Z,99.90
2017-07-11T19:40:24.802Z,99.90
2017-07-11T19:42:52.590Z,99.90
2017-07-11T19:45:20.300Z,99.90
2017-07-11T19:47:47.961Z,99.90
2017-07-11T19:50:15.803Z,99.90
2017-07-11T19:52:43.508Z,99.90
2017-07-11T19:55:11.819Z,99.90
2017-07-11T19:57:39.533Z,99.90
2017-07-11T20:00:07.169Z,99.90
2017-07-11T20:02:34.953Z,99.90
2017-07-11T20:05:02.664Z,99.90
2017-07-11T20:07:30.243Z,99.90
2017-07-11T20:09:57.932Z,99.90
2017-07-11T20:12:26.673Z,99.90
2017-07-11T20:14:54.435Z,99.90
2017-07-11T20:17:22.036Z,99.90
2017-07-11T20:19:49.658Z,99.90
2017-07-11T20:22:18.197Z,99.90
2017-07-11T20:24:45.808Z,99.90
2017-07-11T20:27:13.429Z,99.90
2017-07-11T20:29:41.078Z,99.90
2017-07-11T20:32:08.670Z,99.90
2017-07-11T20:34:36.385Z,99.90
2017-07-11T20:37:04.084Z,99.90
2017-07-11T20:39:31.686Z,99.90
2017-07-11T20:42:00.130Z,99.90
2017-07-11T20:44:27.739Z,99.90
2017-07-11T20:46:56.129Z,99.90
2017-07-11T20:49:23.995Z,99.90
2017-07-11T20:51:51.591Z,99.90
2017-07-11T20:54:19.170Z,99.90
2017-07-11T20:56:46.765Z,99.90
2017-07-11T20:59:14.357Z,99.90
2017-07-11T21:01:42.014Z,99.90
2017-07-11T21:04:09.592Z,99.90
2017-07-11T21:06:37.178Z,99.90
2017-07-11T21:09:04.753Z,99.90
2017-07-11T21:11:32.331Z,99.90
2017-07-11T21:14:00.742Z,99.90
2017-07-11T21:16:28.549Z,99.90
2017-07-11T21:18:56.159Z,99.90
2017-07-11T21:21:23.749Z,99.90
2017-07-11T21:23:51.355Z,99.90
2017-07-11T21:26:19.726Z,99.90
2017-07-11T21:28:47.296Z,99.90
2017-07-11T21:31:14.909Z,99.90
2017-07-11T21:33:42.668Z,99.90
2017-07-11T21:36:10.249Z,99.90
2017-07-11T21:38:37.876Z,99.90
2017-07-11T21:41:05.487Z,99.90
2017-07-11T21:43:33.070Z,99.90
2017-07-11T21:46:00.658Z,99.90
2017-07-11T21:48:28.273Z,99.90
2017-07-11T21:50:55.871Z,99.90
2017-07-11T21:53:24.328Z,99.90
2017-07-11T21:55:52.083Z,99.90
2017-07-11T21:58:19.656Z,99.90
2017-07-11T22:00:47.219Z,99.90
2017-07-11T22:03:14.818Z,99.90
2017-07-11T22:05:43.165Z,99.90
2017-07-11T22:08:10.754Z,99.90
2017-07-11T22:10:38.334Z,99.90
2017-07-11T22:13:05.898Z,99.90
2017-07-11T22:15:33.469Z,99.90
2017-07-11T22:18:01.027Z,99.80
2017-07-11T22:20:28.620Z,99.90
2017-07-11T22:22:56.302Z,99.90
2017-07-11T22:25:23.893Z,99.90
2017-07-11T22:27:52.242Z,98.70
2017-07-11T22:30:19.809Z,98.70
2017-07-11T22:32:47.471Z,99.70
2017-07-11T22:35:15.044Z,98.90
2017-07-11T22:37:42.629Z,98.40
2017-07-11T22:40:10.247Z,99.90
2017-07-11T22:42:37.927Z,99.90
2017-07-11T22:45:05.959Z,99.90
2017-07-11T22:47:33.573Z,99.90
2017-07-11T22:50:01.187Z,99.90
2017-07-11T22:52:28.835Z,99.60
2017-07-11T22:54:56.428Z,99.90
2017-07-11T22:57:24.143Z,99.50
2017-07-11T22:59:52.492Z,99.10
2017-07-11T23:02:20.079Z,99.10
2017-07-11T23:04:48.408Z,98.80
2017-07-11T23:07:16.013Z,98.80
2017-07-11T23:09:44.352Z,98.30
2017-07-11T23:12:12.034Z,98.40
2017-07-11T23:14:39.631Z,97.20
2017-07-11T23:17:07.196Z,98.20
2017-07-11T23:19:35.543Z,96.60
2017-07-11T23:22:03.130Z,96.90
2017-07-11T23:24:30.704Z,97.80
2017-07-11T23:26:59.120Z,97.70
2017-07-11T23:29:26.702Z,97.70
2017-07-11T23:31:55.168Z,97.30
2017-07-11T23:34:22.731Z,97.20
2017-07-11T23:36:50.348Z,98.20
2017-07-11T23:39:18.694Z,98.30
2017-07-11T23:41:46.274Z,98.30
2017-07-11T23:44:13.852Z,98.40
2017-07-11T23:46:42.182Z,96.80
2017-07-11T23:49:09.734Z,96.80
2017-07-11T23:51:37.303Z,97.30
2017-07-11T23:54:04.875Z,99.30
2017-07-11T23:56:32.432Z,98.60
2017-07-11T23:58:59.991Z,97.80
